sensor_id;sensor_type;location;lat;lon;timestamp;pressure;altitude;pressure_sealevel;temperature;humidity
6835;BME280;3455;42.150;24.734;2022-09-13T00:01:03;67759.19;;;23.64;45.69
6835;BME280;3455;42.150;24.734;2022-09-13T00:03:30;67830.81;;;24.02;44.65
6835;BME280;3455;42.150;24.734;2022-09-13T00:05:57;67828.78;;;23.82;44.72
6835;BME280;3455;42.150;24.734;2022-09-13T00:08:27;67845.91;;;24.11;44.76
6835;BME280;3455;42.150;24.734;2022-09-13T00:10:54;67764.13;;;23.66;44.79
6835;BME280;3455;42.150;24.734;2022-09-13T00:13:21;67713.38;;;23.17;46.65
6835;BME280;3455;42.150;24.734;2022-09-13T00:15:48;67761.22;;;23.27;46.39
6835;BME280;3455;42.150;24.734;2022-09-13T00:18:17;67798.03;;;23.64;45.82
6835;BME280;3455;42.150;24.734;2022-09-13T00:20:44;67732.13;;;23.43;46.10
6835;BME280;3455;42.150;24.734;2022-09-13T00:23:11;67819.13;;;23.71;45.26
6835;BME280;3455;42.150;24.734;2022-09-13T00:25:40;67772.00;;;23.55;45.63
6835;BME280;3455;42.150;24.734;2022-09-13T00:28:07;67702.31;;;23.07;46.62
6835;BME280;3455;42.150;24.734;2022-09-13T00:30:33;67750.38;;;23.31;46.21
6835;BME280;3455;42.150;24.734;2022-09-13T00:33:00;67697.56;;;22.99;46.44
6835;BME280;3455;42.150;24.734;2022-09-13T00:35:29;67618.84;;;22.57;46.99
6835;BME280;3455;42.150;24.734;2022-09-13T00:37:58;67699.22;;;22.96;46.43
6835;BME280;3455;42.150;24.734;2022-09-13T00:40:25;67760.72;;;23.31;45.77
6835;BME280;3455;42.150;24.734;2022-09-13T00:42:55;67767.72;;;23.38;45.79
6835;BME280;3455;42.150;24.734;2022-09-13T00:45:22;67689.53;;;23.01;46.30
6835;BME280;3455;42.150;24.734;2022-09-13T00:47:52;67719.31;;;23.31;45.89
6835;BME280;3455;42.150;24.734;2022-09-13T00:50:24;67852.44;;;23.85;44.68
6835;BME280;3455;42.150;24.734;2022-09-13T00:52:57;67755.16;;;23.45;45.63
6835;BME280;3455;42.150;24.734;2022-09-13T00:55:29;67793.34;;;23.60;44.83
6835;BME280;3455;42.150;24.734;2022-09-13T00:58:01;67739.25;;;23.38;45.67
6835;BME280;3455;42.150;24.734;2022-09-13T01:00:30;67809.97;;;23.57;45.36
6835;BME280;3455;42.150;24.734;2022-09-13T01:02:59;67809.25;;;23.67;45.12
6835;BME280;3455;42.150;24.734;2022-09-13T01:05:30;67869.41;;;24.04;44.56
6835;BME280;3455;42.150;24.734;2022-09-13T01:07:58;67781.00;;;23.61;45.04
6835;BME280;3455;42.150;24.734;2022-09-13T01:10:27;67774.19;;;23.48;45.57
6835;BME280;3455;42.150;24.734;2022-09-13T01:13:02;67756.19;;;23.37;45.99
6835;BME280;3455;42.150;24.734;2022-09-13T01:15:37;67725.13;;;23.16;46.17
6835;BME280;3455;42.150;24.734;2022-09-13T01:18:04;67786.44;;;23.59;45.35
6835;BME280;3455;42.150;24.734;2022-09-13T01:20:47;67754.06;;;23.48;45.08
6835;BME280;3455;42.150;24.734;2022-09-13T01:23:39;67854.06;;;23.45;45.27
6835;BME280;3455;42.150;24.734;2022-09-13T01:26:34;67759.31;;;23.53;45.17
6835;BME280;3455;42.150;24.734;2022-09-13T01:32:07;67824.44;;;23.44;45.19
6835;BME280;3455;42.150;24.734;2022-09-13T01:34:45;67752.31;;;23.26;45.80
6835;BME280;3455;42.150;24.734;2022-09-13T01:37:37;67772.47;;;23.67;44.95
6835;BME280;3455;42.150;24.734;2022-09-13T01:40:16;67777.88;;;23.44;45.52
6835;BME280;3455;42.150;24.734;2022-09-13T01:42:59;67754.31;;;23.26;46.07
6835;BME280;3455;42.150;24.734;2022-09-13T01:45:36;67642.69;;;22.78;46.76
6835;BME280;3455;42.150;24.734;2022-09-13T01:48:13;67817.41;;;23.54;45.20
6835;BME280;3455;42.150;24.734;2022-09-13T01:50:45;67718.41;;;23.08;46.71
6835;BME280;3455;42.150;24.734;2022-09-13T01:53:18;67776.38;;;23.41;45.93
6835;BME280;3455;42.150;24.734;2022-09-13T01:55:50;67583.69;;;22.48;48.09
6835;BME280;3455;42.150;24.734;2022-09-13T01:58:28;67602.41;;;22.17;48.83
6835;BME280;3455;42.150;24.734;2022-09-13T02:01:06;67686.91;;;22.60;47.56
6835;BME280;3455;42.150;24.734;2022-09-13T02:03:38;67639.88;;;22.64;47.79
6835;BME280;3455;42.150;24.734;2022-09-13T02:06:11;67671.13;;;22.62;47.48
6835;BME280;3455;42.150;24.734;2022-09-13T02:08:42;67594.00;;;22.12;48.90
6835;BME280;3455;42.150;24.734;2022-09-13T02:11:12;67577.78;;;22.02;48.43
6835;BME280;3455;42.150;24.734;2022-09-13T02:13:46;67628.63;;;22.40;48.27
6835;BME280;3455;42.150;24.734;2022-09-13T02:16:17;67610.06;;;22.12;48.28
6835;BME280;3455;42.150;24.734;2022-09-13T02:18:51;67638.94;;;22.24;48.11
6835;BME280;3455;42.150;24.734;2022-09-13T02:21:21;67641.97;;;22.31;48.53
6835;BME280;3455;42.150;24.734;2022-09-13T02:23:53;67630.53;;;22.35;48.03
6835;BME280;3455;42.150;24.734;2022-09-13T02:26:23;67650.81;;;22.64;47.16
6835;BME280;3455;42.150;24.734;2022-09-13T02:28:51;67571.47;;;22.01;48.61
6835;BME280;3455;42.150;24.734;2022-09-13T02:31:23;67614.22;;;22.21;48.42
6835;BME280;3455;42.150;24.734;2022-09-13T02:33:55;67648.66;;;22.55;47.52
6835;BME280;3455;42.150;24.734;2022-09-13T02:36:26;67644.66;;;22.57;47.42
6835;BME280;3455;42.150;24.734;2022-09-13T02:38:58;67582.97;;;22.02;48.14
6835;BME280;3455;42.150;24.734;2022-09-13T02:41:29;67627.03;;;22.32;47.73
6835;BME280;3455;42.150;24.734;2022-09-13T02:44:05;67600.56;;;22.27;47.58
6835;BME280;3455;42.150;24.734;2022-09-13T02:46:46;67599.84;;;22.01;47.73
6835;BME280;3455;42.150;24.734;2022-09-13T02:49:22;67632.19;;;22.32;47.50
6835;BME280;3455;42.150;24.734;2022-09-13T02:51:55;67565.09;;;21.80;48.26
6835;BME280;3455;42.150;24.734;2022-09-13T02:54:31;67664.72;;;22.56;46.87
6835;BME280;3455;42.150;24.734;2022-09-13T02:57:04;67675.50;;;22.47;46.37
6835;BME280;3455;42.150;24.734;2022-09-13T02:59:33;67636.88;;;22.36;46.75
6835;BME280;3455;42.150;24.734;2022-09-13T03:02:03;67642.03;;;22.36;46.63
6835;BME280;3455;42.150;24.734;2022-09-13T03:04:34;67653.78;;;22.19;46.79
6835;BME280;3455;42.150;24.734;2022-09-13T03:07:01;67587.47;;;21.97;47.21
6835;BME280;3455;42.150;24.734;2022-09-13T03:09:29;67629.56;;;22.11;47.08
6835;BME280;3455;42.150;24.734;2022-09-13T03:12:17;67571.88;;;22.08;47.47
6835;BME280;3455;42.150;24.734;2022-09-13T03:14:54;67556.91;;;21.88;47.89
6835;BME280;3455;42.150;24.734;2022-09-13T03:17:44;67588.59;;;21.98;47.36
6835;BME280;3455;42.150;24.734;2022-09-13T03:20:18;67589.72;;;21.94;47.71
6835;BME280;3455;42.150;24.734;2022-09-13T03:29:04;67630.50;;;21.99;47.66
6835;BME280;3455;42.150;24.734;2022-09-13T03:31:36;67597.94;;;22.06;47.37
6835;BME280;3455;42.150;24.734;2022-09-13T03:34:11;67617.72;;;22.24;47.26
6835;BME280;3455;42.150;24.734;2022-09-13T03:36:44;67662.34;;;22.49;46.56
6835;BME280;3455;42.150;24.734;2022-09-13T03:39:17;67598.81;;;22.25;47.07
6835;BME280;3455;42.150;24.734;2022-09-13T03:41:51;67682.53;;;22.22;47.08
6835;BME280;3455;42.150;24.734;2022-09-13T03:44:22;67622.38;;;22.28;47.22
6835;BME280;3455;42.150;24.734;2022-09-13T03:46:53;67598.28;;;21.93;47.35
6835;BME280;3455;42.150;24.734;2022-09-13T03:49:24;67592.97;;;22.20;46.98
6835;BME280;3455;42.150;24.734;2022-09-13T03:51:54;67601.72;;;22.28;47.09
6835;BME280;3455;42.150;24.734;2022-09-13T03:54:24;67657.31;;;20.99;48.27
6835;BME280;3455;42.150;24.734;2022-09-13T03:57:05;67571.91;;;21.76;48.10
6835;BME280;3455;42.150;24.734;2022-09-13T03:59:32;67534.50;;;21.66;48.61
6835;BME280;3455;42.150;24.734;2022-09-13T04:02:01;67569.19;;;21.67;48.78
6835;BME280;3455;42.150;24.734;2022-09-13T04:04:27;67514.16;;;21.32;49.44
6835;BME280;3455;42.150;24.734;2022-09-13T04:06:56;67449.78;;;20.69;50.78
6835;BME280;3455;42.150;24.734;2022-09-13T04:09:23;67491.19;;;21.30;49.81
6835;BME280;3455;42.150;24.734;2022-09-13T04:11:50;67567.03;;;21.74;48.54
6835;BME280;3455;42.150;24.734;2022-09-13T04:14:16;67523.03;;;21.33;50.02
6835;BME280;3455;42.150;24.734;2022-09-13T04:16:43;67558.88;;;21.67;48.85
6835;BME280;3455;42.150;24.734;2022-09-13T04:19:10;67535.53;;;21.78;48.41
6835;BME280;3455;42.150;24.734;2022-09-13T04:21:37;67584.63;;;21.99;47.98
6835;BME280;3455;42.150;24.734;2022-09-13T04:24:05;67596.91;;;22.14;47.91
6835;BME280;3455;42.150;24.734;2022-09-13T04:26:32;67589.28;;;22.03;48.13
6835;BME280;3455;42.150;24.734;2022-09-13T04:29:00;67561.28;;;21.74;48.60
6835;BME280;3455;42.150;24.734;2022-09-13T04:31:26;67575.56;;;21.89;48.26
6835;BME280;3455;42.150;24.734;2022-09-13T04:33:53;67645.63;;;22.12;47.22
6835;BME280;3455;42.150;24.734;2022-09-13T04:36:20;67615.16;;;22.08;47.32
6835;BME280;3455;42.150;24.734;2022-09-13T04:38:47;67544.19;;;21.82;48.05
6835;BME280;3455;42.150;24.734;2022-09-13T04:41:15;67585.13;;;21.95;47.75
6835;BME280;3455;42.150;24.734;2022-09-13T04:43:42;67628.41;;;22.10;47.34
6835;BME280;3455;42.150;24.734;2022-09-13T04:46:09;67621.81;;;22.27;47.16
6835;BME280;3455;42.150;24.734;2022-09-13T04:48:36;67625.41;;;22.03;48.04
6835;BME280;3455;42.150;24.734;2022-09-13T04:51:03;67617.38;;;22.37;47.01
6835;BME280;3455;42.150;24.734;2022-09-13T04:53:30;67728.06;;;23.03;45.53
6835;BME280;3455;42.150;24.734;2022-09-13T04:55:59;67814.06;;;23.60;44.65
6835;BME280;3455;42.150;24.734;2022-09-13T04:58:28;67868.31;;;24.08;43.26
6835;BME280;3455;42.150;24.734;2022-09-13T05:01:00;67930.78;;;24.47;42.34
6835;BME280;3455;42.150;24.734;2022-09-13T05:03:28;67917.81;;;24.47;42.21
6835;BME280;3455;42.150;24.734;2022-09-13T05:06:01;68030.75;;;25.23;40.39
6835;BME280;3455;42.150;24.734;2022-09-13T05:08:28;68054.97;;;25.42;39.85
6835;BME280;3455;42.150;24.734;2022-09-13T05:10:55;68117.59;;;25.86;39.30
6835;BME280;3455;42.150;24.734;2022-09-13T05:13:22;67959.94;;;25.09;40.62
6835;BME280;3455;42.150;24.734;2022-09-13T05:15:54;68025.19;;;25.37;40.59
6835;BME280;3455;42.150;24.734;2022-09-13T05:18:21;67922.38;;;24.83;41.29
6835;BME280;3455;42.150;24.734;2022-09-13T05:20:48;67982.88;;;25.02;41.20
6835;BME280;3455;42.150;24.734;2022-09-13T05:23:15;67952.13;;;24.68;41.39
6835;BME280;3455;42.150;24.734;2022-09-13T05:25:41;67940.06;;;24.71;41.75
6835;BME280;3455;42.150;24.734;2022-09-13T05:28:08;68024.47;;;25.27;40.74
6835;BME280;3455;42.150;24.734;2022-09-13T05:30:36;68013.44;;;25.42;40.67
6835;BME280;3455;42.150;24.734;2022-09-13T05:33:04;67957.06;;;24.91;41.31
6835;BME280;3455;42.150;24.734;2022-09-13T05:35:31;68027.66;;;25.48;40.94
6835;BME280;3455;42.150;24.734;2022-09-13T05:37:58;68235.13;;;26.85;38.17
6835;BME280;3455;42.150;24.734;2022-09-13T05:40:25;68456.72;;;28.31;35.15
6835;BME280;3455;42.150;24.734;2022-09-13T05:42:52;68589.28;;;29.22;33.24
6835;BME280;3455;42.150;24.734;2022-09-13T05:45:19;68528.84;;;29.15;33.10
6835;BME280;3455;42.150;24.734;2022-09-13T05:47:49;68592.78;;;29.25;33.22
6835;BME280;3455;42.150;24.734;2022-09-13T05:50:17;68600.88;;;29.23;33.64
6835;BME280;3455;42.150;24.734;2022-09-13T05:52:50;68776.97;;;30.67;31.79
6835;BME280;3455;42.150;24.734;2022-09-13T05:55:17;68692.97;;;30.19;31.92
6835;BME280;3455;42.150;24.734;2022-09-13T05:57:44;68818.31;;;30.72;30.72
6835;BME280;3455;42.150;24.734;2022-09-13T06:00:12;68826.94;;;30.86;31.01
6835;BME280;3455;42.150;24.734;2022-09-13T06:02:39;68881.75;;;31.18;30.28
6835;BME280;3455;42.150;24.734;2022-09-13T06:05:07;68776.63;;;30.40;31.57
6835;BME280;3455;42.150;24.734;2022-09-13T06:07:38;68890.50;;;31.21;30.56
6835;BME280;3455;42.150;24.734;2022-09-13T06:10:06;68698.72;;;29.90;31.93
6835;BME280;3455;42.150;24.734;2022-09-13T06:12:33;68886.56;;;31.31;31.00
6835;BME280;3455;42.150;24.734;2022-09-13T06:15:00;68971.06;;;31.36;30.01
6835;BME280;3455;42.150;24.734;2022-09-13T06:17:27;69040.72;;;32.06;28.89
6835;BME280;3455;42.150;24.734;2022-09-13T06:19:53;69003.09;;;31.82;29.12
6835;BME280;3455;42.150;24.734;2022-09-13T06:22:21;69142.88;;;32.17;28.92
6835;BME280;3455;42.150;24.734;2022-09-13T06:24:49;69284.69;;;33.54;27.52
6835;BME280;3455;42.150;24.734;2022-09-13T06:27:16;69288.94;;;33.42;26.87
6835;BME280;3455;42.150;24.734;2022-09-13T06:29:43;69304.19;;;33.71;27.65
6835;BME280;3455;42.150;24.734;2022-09-13T06:32:10;69301.84;;;33.69;26.59
6835;BME280;3455;42.150;24.734;2022-09-13T06:34:36;69374.81;;;34.10;26.12
6835;BME280;3455;42.150;24.734;2022-09-13T06:37:03;69305.53;;;33.86;26.06
6835;BME280;3455;42.150;24.734;2022-09-13T06:39:30;69451.66;;;34.51;25.80
6835;BME280;3455;42.150;24.734;2022-09-13T06:42:00;69468.59;;;34.73;25.40
6835;BME280;3455;42.150;24.734;2022-09-13T06:44:26;69550.22;;;34.94;25.70
6835;BME280;3455;42.150;24.734;2022-09-13T06:46:53;69313.09;;;33.84;26.33
6835;BME280;3455;42.150;24.734;2022-09-13T06:49:20;69450.63;;;34.39;25.46
6835;BME280;3455;42.150;24.734;2022-09-13T06:51:49;69194.66;;;33.24;27.05
6835;BME280;3455;42.150;24.734;2022-09-13T06:54:16;69180.44;;;33.07;26.97
6835;BME280;3455;42.150;24.734;2022-09-13T06:56:43;69372.91;;;33.99;26.02
6835;BME280;3455;42.150;24.734;2022-09-13T06:59:11;69647.16;;;35.64;24.66
6835;BME280;3455;42.150;24.734;2022-09-13T07:01:39;69687.41;;;35.94;24.21
6835;BME280;3455;42.150;24.734;2022-09-13T07:04:08;69772.78;;;36.18;23.26
6835;BME280;3455;42.150;24.734;2022-09-13T07:06:37;69647.88;;;35.74;24.16
6835;BME280;3455;42.150;24.734;2022-09-13T07:09:06;69752.31;;;36.23;23.51
6835;BME280;3455;42.150;24.734;2022-09-13T07:11:35;69650.53;;;35.74;23.81
6835;BME280;3455;42.150;24.734;2022-09-13T07:14:02;69726.44;;;36.19;23.99
6835;BME280;3455;42.150;24.734;2022-09-13T07:16:34;69615.44;;;35.59;23.89
6835;BME280;3455;42.150;24.734;2022-09-13T07:19:04;69820.13;;;36.50;23.25
6835;BME280;3455;42.150;24.734;2022-09-13T07:21:33;69924.13;;;37.03;22.72
6835;BME280;3455;42.150;24.734;2022-09-13T07:24:00;69934.81;;;37.12;21.81
6835;BME280;3455;42.150;24.734;2022-09-13T07:26:27;69850.50;;;36.85;22.34
6835;BME280;3455;42.150;24.734;2022-09-13T07:29:01;69996.72;;;37.25;21.92
6835;BME280;3455;42.150;24.734;2022-09-13T07:31:34;69879.34;;;36.92;22.40
6835;BME280;3455;42.150;24.734;2022-09-13T07:34:04;69866.63;;;37.13;22.04
6835;BME280;3455;42.150;24.734;2022-09-13T07:36:34;70058.66;;;37.87;20.82
6835;BME280;3455;42.150;24.734;2022-09-13T07:39:05;69783.13;;;36.50;22.31
6835;BME280;3455;42.150;24.734;2022-09-13T07:41:34;70084.75;;;38.05;21.28
6835;BME280;3455;42.150;24.734;2022-09-13T07:44:04;69941.69;;;37.46;21.45
6835;BME280;3455;42.150;24.734;2022-09-13T07:46:35;70123.19;;;38.20;21.33
6835;BME280;3455;42.150;24.734;2022-09-13T07:49:06;69969.63;;;37.19;22.00
6835;BME280;3455;42.150;24.734;2022-09-13T07:51:34;69843.19;;;36.65;22.11
6835;BME280;3455;42.150;24.734;2022-09-13T07:54:03;70185.78;;;38.33;20.82
6835;BME280;3455;42.150;24.734;2022-09-13T07:56:32;69939.97;;;37.49;21.21
6835;BME280;3455;42.150;24.734;2022-09-13T07:59:00;70158.19;;;38.41;20.39
6835;BME280;3455;42.150;24.734;2022-09-13T08:01:29;70371.44;;;39.29;19.39
6835;BME280;3455;42.150;24.734;2022-09-13T08:03:58;70529.88;;;39.92;19.29
6835;BME280;3455;42.150;24.734;2022-09-13T08:06:27;70192.59;;;38.36;20.06
6835;BME280;3455;42.150;24.734;2022-09-13T08:08:54;70416.56;;;39.49;19.26
6835;BME280;3455;42.150;24.734;2022-09-13T08:11:23;70689.59;;;40.97;18.09
6835;BME280;3455;42.150;24.734;2022-09-13T08:13:51;70579.09;;;40.57;18.39
6835;BME280;3455;42.150;24.734;2022-09-13T08:16:19;69825.72;;;36.77;20.89
6835;BME280;3455;42.150;24.734;2022-09-13T08:18:49;69962.59;;;37.23;20.65
6835;BME280;3455;42.150;24.734;2022-09-13T08:21:17;69968.19;;;37.50;20.69
6835;BME280;3455;42.150;24.734;2022-09-13T08:23:45;70037.34;;;37.78;20.55
6835;BME280;3455;42.150;24.734;2022-09-13T08:26:12;70221.59;;;38.73;19.75
6835;BME280;3455;42.150;24.734;2022-09-13T08:28:40;69906.00;;;37.10;20.94
6835;BME280;3455;42.150;24.734;2022-09-13T08:31:09;70045.03;;;37.80;20.62
6835;BME280;3455;42.150;24.734;2022-09-13T08:33:36;70277.19;;;38.89;19.32
6835;BME280;3455;42.150;24.734;2022-09-13T08:36:04;70264.03;;;38.98;19.19
6835;BME280;3455;42.150;24.734;2022-09-13T08:38:32;70317.09;;;39.19;19.05
6835;BME280;3455;42.150;24.734;2022-09-13T08:41:02;70543.81;;;40.22;17.66
6835;BME280;3455;42.150;24.734;2022-09-13T08:43:40;70822.00;;;41.33;16.63
6835;BME280;3455;42.150;24.734;2022-09-13T08:46:22;70665.38;;;40.99;16.78
6835;BME280;3455;42.150;24.734;2022-09-13T08:48:53;70569.69;;;40.58;16.18
6835;BME280;3455;42.150;24.734;2022-09-13T08:51:30;70812.41;;;41.46;16.32
6835;BME280;3455;42.150;24.734;2022-09-13T08:53:59;70402.47;;;39.56;17.58
6835;BME280;3455;42.150;24.734;2022-09-13T08:56:34;70261.19;;;39.05;17.52
6835;BME280;3455;42.150;24.734;2022-09-13T08:59:31;70571.06;;;40.27;16.98
6835;BME280;3455;42.150;24.734;2022-09-13T09:02:09;70929.44;;;41.98;15.53
6835;BME280;3455;42.150;24.734;2022-09-13T09:04:44;70825.28;;;41.59;15.90
6835;BME280;3455;42.150;24.734;2022-09-13T09:07:16;70780.59;;;41.34;15.80
6835;BME280;3455;42.150;24.734;2022-09-13T09:09:50;70286.50;;;39.29;17.48
6835;BME280;3455;42.150;24.734;2022-09-13T09:12:26;70277.72;;;39.05;17.82
6835;BME280;3455;42.150;24.734;2022-09-13T09:15:01;69831.56;;;36.73;19.46
6835;BME280;3455;42.150;24.734;2022-09-13T09:17:34;69511.06;;;35.01;21.12
6835;BME280;3455;42.150;24.734;2022-09-13T09:20:20;69532.69;;;34.97;21.63
6835;BME280;3455;42.150;24.734;2022-09-13T09:22:50;69252.81;;;33.77;22.49
6835;BME280;3455;42.150;24.734;2022-09-13T09:25:19;69249.00;;;33.51;23.21
6835;BME280;3455;42.150;24.734;2022-09-13T09:27:47;69251.78;;;33.40;23.15
6835;BME280;3455;42.150;24.734;2022-09-13T09:30:14;69147.13;;;33.06;23.50
6835;BME280;3455;42.150;24.734;2022-09-13T09:33:06;69132.63;;;32.86;23.76
6835;BME280;3455;42.150;24.734;2022-09-13T09:35:46;69123.59;;;32.85;23.58
6835;BME280;3455;42.150;24.734;2022-09-13T09:38:32;69069.59;;;32.36;23.99
6835;BME280;3455;42.150;24.734;2022-09-13T09:41:04;68982.44;;;32.10;24.11
6835;BME280;3455;42.150;24.734;2022-09-13T09:43:38;69051.06;;;32.47;24.23
6835;BME280;3455;42.150;24.734;2022-09-13T09:46:08;68990.75;;;31.97;25.31
6835;BME280;3455;42.150;24.734;2022-09-13T09:48:43;68810.53;;;31.01;25.77
6835;BME280;3455;42.150;24.734;2022-09-13T09:51:12;68879.59;;;31.34;25.73
6835;BME280;3455;42.150;24.734;2022-09-13T09:53:43;68952.25;;;31.70;25.11
6835;BME280;3455;42.150;24.734;2022-09-13T09:56:22;68873.09;;;31.24;25.62
6835;BME280;3455;42.150;24.734;2022-09-13T09:58:51;68758.81;;;30.56;26.16
6835;BME280;3455;42.150;24.734;2022-09-13T10:01:22;68882.13;;;31.25;26.23
6835;BME280;3455;42.150;24.734;2022-09-13T10:03:59;68814.34;;;31.02;25.70
6835;BME280;3455;42.150;24.734;2022-09-13T10:06:28;68883.50;;;31.44;25.69
6835;BME280;3455;42.150;24.734;2022-09-13T10:08:59;68955.25;;;31.77;25.51
6835;BME280;3455;42.150;24.734;2022-09-13T10:11:45;69074.91;;;32.40;24.97
6835;BME280;3455;42.150;24.734;2022-09-13T10:14:34;68997.66;;;32.14;24.71
6835;BME280;3455;42.150;24.734;2022-09-13T10:17:12;68994.66;;;32.07;25.24
6835;BME280;3455;42.150;24.734;2022-09-13T10:19:51;69092.56;;;32.51;24.66
6835;BME280;3455;42.150;24.734;2022-09-13T10:22:19;69060.84;;;32.33;24.72
6835;BME280;3455;42.150;24.734;2022-09-13T10:24:46;69151.41;;;32.93;24.02
6835;BME280;3455;42.150;24.734;2022-09-13T10:27:21;69240.75;;;33.44;23.70
6835;BME280;3455;42.150;24.734;2022-09-13T10:29:52;69362.50;;;34.08;22.86
6835;BME280;3455;42.150;24.734;2022-09-13T10:32:24;69306.50;;;34.19;22.70
6835;BME280;3455;42.150;24.734;2022-09-13T10:34:51;69297.19;;;34.00;21.86
6835;BME280;3455;42.150;24.734;2022-09-13T10:37:21;69235.91;;;33.30;22.88
6835;BME280;3455;42.150;24.734;2022-09-13T10:39:54;69219.97;;;33.42;22.71
6835;BME280;3455;42.150;24.734;2022-09-13T10:42:25;69329.41;;;34.05;22.13
6835;BME280;3455;42.150;24.734;2022-09-13T10:44:57;69210.81;;;33.31;22.21
6835;BME280;3455;42.150;24.734;2022-09-13T10:47:30;69289.09;;;33.56;22.51
6835;BME280;3455;42.150;24.734;2022-09-13T10:50:11;69215.53;;;33.35;22.17
6835;BME280;3455;42.150;24.734;2022-09-13T10:52:42;69443.03;;;34.67;21.58
6835;BME280;3455;42.150;24.734;2022-09-13T10:55:29;69630.19;;;35.67;20.45
6835;BME280;3455;42.150;24.734;2022-09-13T10:58:19;69365.63;;;34.25;21.05
6835;BME280;3455;42.150;24.734;2022-09-13T11:04:17;69332.00;;;34.00;22.09
6835;BME280;3455;42.150;24.734;2022-09-13T11:06:53;69363.03;;;34.04;22.07
6835;BME280;3455;42.150;24.734;2022-09-13T11:09:25;69385.47;;;34.19;22.28
6835;BME280;3455;42.150;24.734;2022-09-13T11:12:02;69426.84;;;34.60;21.94
6835;BME280;3455;42.150;24.734;2022-09-13T11:14:50;69298.88;;;33.92;22.36
6835;BME280;3455;42.150;24.734;2022-09-13T11:17:31;69283.69;;;33.67;21.99
6835;BME280;3455;42.150;24.734;2022-09-13T11:20:14;69511.03;;;34.96;20.81
6835;BME280;3455;42.150;24.734;2022-09-13T11:25:53;70246.84;;;38.63;18.19
6835;BME280;3455;42.150;24.734;2022-09-13T11:28:27;70161.28;;;38.53;17.43
6835;BME280;3455;42.150;24.734;2022-09-13T11:31:24;70159.66;;;38.40;17.47
6835;BME280;3455;42.150;24.734;2022-09-13T11:34:10;70288.06;;;39.07;16.54
6835;BME280;3455;42.150;24.734;2022-09-13T11:36:47;70092.59;;;38.21;16.64
6835;BME280;3455;42.150;24.734;2022-09-13T11:39:28;70002.97;;;37.57;17.73
6835;BME280;3455;42.150;24.734;2022-09-13T11:42:04;69893.69;;;37.13;17.82
6835;BME280;3455;42.150;24.734;2022-09-13T11:44:55;69678.56;;;35.91;19.08
6835;BME280;3455;42.150;24.734;2022-09-13T11:47:35;69676.31;;;35.98;19.10
6835;BME280;3455;42.150;24.734;2022-09-13T11:50:26;69516.28;;;35.21;19.88
6835;BME280;3455;42.150;24.734;2022-09-13T11:53:11;69535.91;;;35.22;20.12
6835;BME280;3455;42.150;24.734;2022-09-13T11:55:46;69428.88;;;34.84;19.99
6835;BME280;3455;42.150;24.734;2022-09-13T11:58:19;69372.16;;;34.35;20.28
6835;BME280;3455;42.150;24.734;2022-09-13T12:00:50;69355.19;;;34.34;20.40
6835;BME280;3455;42.150;24.734;2022-09-13T12:03:25;69434.44;;;34.57;20.98
6835;BME280;3455;42.150;24.734;2022-09-13T12:05:59;69304.03;;;34.12;20.89
6835;BME280;3455;42.150;24.734;2022-09-13T12:08:30;69530.00;;;35.17;20.14
6835;BME280;3455;42.150;24.734;2022-09-13T12:11:02;69309.13;;;33.94;21.04
6835;BME280;3455;42.150;24.734;2022-09-13T12:13:31;69546.03;;;35.36;20.11
6835;BME280;3455;42.150;24.734;2022-09-13T12:16:04;70036.59;;;37.64;18.27
6835;BME280;3455;42.150;24.734;2022-09-13T12:18:36;70005.59;;;37.78;18.31
6835;BME280;3455;42.150;24.734;2022-09-13T12:21:08;70382.19;;;39.38;16.36
6835;BME280;3455;42.150;24.734;2022-09-13T12:23:40;70430.16;;;39.52;15.95
6835;BME280;3455;42.150;24.734;2022-09-13T12:26:13;70819.25;;;41.49;15.02
6835;BME280;3455;42.150;24.734;2022-09-13T12:28:44;70975.97;;;42.19;14.79
6835;BME280;3455;42.150;24.734;2022-09-13T12:31:16;70699.94;;;41.20;14.63
6835;BME280;3455;42.150;24.734;2022-09-13T12:33:46;70846.31;;;41.81;14.62
6835;BME280;3455;42.150;24.734;2022-09-13T12:36:29;70523.16;;;40.23;14.67
6835;BME280;3455;42.150;24.734;2022-09-13T12:42:23;70272.13;;;39.07;15.95
6835;BME280;3455;42.150;24.734;2022-09-13T12:45:12;70487.19;;;40.28;14.97
6835;BME280;3455;42.150;24.734;2022-09-13T12:48:01;70922.09;;;42.24;13.89
6835;BME280;3455;42.150;24.734;2022-09-13T12:50:45;70978.19;;;42.53;13.60
6835;BME280;3455;42.150;24.734;2022-09-13T12:53:35;70532.78;;;40.36;14.61
6835;BME280;3455;42.150;24.734;2022-09-13T12:56:28;70576.19;;;40.59;15.05
6835;BME280;3455;42.150;24.734;2022-09-13T13:02:23;70740.81;;;41.23;14.53
6835;BME280;3455;42.150;24.734;2022-09-13T13:04:52;70547.25;;;40.62;14.88
6835;BME280;3455;42.150;24.734;2022-09-13T13:07:23;71030.56;;;42.25;13.93
6835;BME280;3455;42.150;24.734;2022-09-13T13:09:51;70856.00;;;41.99;14.25
6835;BME280;3455;42.150;24.734;2022-09-13T13:12:28;70546.88;;;40.29;15.44
6835;BME280;3455;42.150;24.734;2022-09-13T13:14:56;70389.94;;;39.95;15.61
6835;BME280;3455;42.150;24.734;2022-09-13T13:17:38;70565.66;;;40.68;15.15
6835;BME280;3455;42.150;24.734;2022-09-13T13:20:38;70342.22;;;39.49;15.60
6835;BME280;3455;42.150;24.734;2022-09-13T13:23:18;70235.53;;;39.03;16.02
6835;BME280;3455;42.150;24.734;2022-09-13T13:26:06;70263.78;;;39.00;16.24
6835;BME280;3455;42.150;24.734;2022-09-13T13:28:53;70553.88;;;40.47;15.29
6835;BME280;3455;42.150;24.734;2022-09-13T13:31:37;70669.25;;;40.80;14.95
6835;BME280;3455;42.150;24.734;2022-09-13T13:37:35;70573.50;;;40.59;15.52
6835;BME280;3455;42.150;24.734;2022-09-13T13:40:24;70415.59;;;39.67;15.44
6835;BME280;3455;42.150;24.734;2022-09-13T13:43:14;70197.97;;;38.66;16.86
6835;BME280;3455;42.150;24.734;2022-09-13T13:45:55;69835.25;;;37.15;16.76
6835;BME280;3455;42.150;24.734;2022-09-13T13:48:35;69714.78;;;36.27;17.92
6835;BME280;3455;42.150;24.734;2022-09-13T13:51:23;69677.84;;;36.06;18.34
6835;BME280;3455;42.150;24.734;2022-09-13T13:53:54;69773.09;;;36.71;17.23
6835;BME280;3455;42.150;24.734;2022-09-13T13:56:28;69695.91;;;36.20;17.62
6835;BME280;3455;42.150;24.734;2022-09-13T13:59:02;69905.22;;;37.46;17.22
6835;BME280;3455;42.150;24.734;2022-09-13T14:01:33;69812.56;;;36.57;17.26
6835;BME280;3455;42.150;24.734;2022-09-13T14:06:56;69751.22;;;36.31;18.74